Time;durP1;ratioP1;P1;durP2;ratioP2;P2;SDS_P1;SDS_P2;PMS_P1;PMS_P2;Temp;Humidity;BMP_temperature;BMP_pressure;BME280_temperature;BME280_humidity;BME280_pressure;Samples;Min_cycle;Max_cycle;Signal;HPM_P1;HPM_P2
2023/08/19 00:02:14;;;;;;;14.00;12.80;;;;;;;16.94;100.00;97948.22;6143574;23;20236;-49
2023/08/19 00:05:18;;;;;;;13.37;12.17;;;;;;;16.95;100.00;97947.16;6158155;28;20345;-50
2023/08/19 00:08:23;;;;;;;14.93;13.63;;;;;;;16.93;100.00;97955.50;6156378;28;20233;-49
2023/08/19 00:11:25;;;;;;;14.97;13.67;;;;;;;16.90;100.00;97956.06;6156518;28;20251;-49
2023/08/19 00:14:27;;;;;;;14.43;13.20;;;;;;;16.88;100.00;97952.84;6119560;28;20237;-48
2023/08/19 00:17:29;;;;;;;15.77;14.37;;;;;;;16.87;100.00;97953.13;6139546;28;20227;-50
2023/08/19 00:20:36;;;;;;;14.87;13.57;;;;;;;16.85;100.00;97952.59;6155824;28;20233;-49
2023/08/19 00:23:39;;;;;;;14.83;13.47;;;;;;;16.83;100.00;97952.06;6153124;28;20276;-50
2023/08/19 00:26:41;;;;;;;15.70;14.23;;;;;;;16.72;100.00;97943.22;6155942;28;20246;-50
2023/08/19 00:29:44;;;;;;;15.83;14.33;;;;;;;16.80;100.00;97953.44;6157040;28;20732;-51
2023/08/19 00:32:48;;;;;;;15.67;14.37;;;;;;;16.77;100.00;97957.47;6155951;28;20698;-47
2023/08/19 00:35:51;;;;;;;17.90;14.77;;;;;;;16.75;100.00;97948.88;6161033;28;20238;-48
2023/08/19 00:38:54;;;;;;;15.57;13.97;;;;;;;16.74;100.00;97951.81;6160040;28;20241;-48
2023/08/19 00:41:57;;;;;;;16.57;14.83;;;;;;;16.71;100.00;97953.19;6160857;28;20599;-50
2023/08/19 00:45:00;;;;;;;15.40;14.00;;;;;;;16.71;100.00;97955.88;6155175;28;20238;-47
2023/08/19 00:48:06;;;;;;;14.63;13.23;;;;;;;16.72;100.00;97951.28;6158297;28;20242;-49
2023/08/19 00:51:08;;;;;;;15.30;13.80;;;;;;;16.71;100.00;97950.50;6162545;28;20225;-46
2023/08/19 00:54:10;;;;;;;14.33;13.10;;;;;;;16.72;100.00;97956.69;6160221;28;20249;-49
2023/08/19 00:57:13;;;;;;;15.03;13.60;;;;;;;16.72;100.00;97951.28;6160557;28;20229;-48
2023/08/19 01:00:16;;;;;;;14.37;13.10;;;;;;;16.73;100.00;97948.31;6157681;28;20226;-51
2023/08/19 01:03:23;;;;;;;14.13;12.73;;;;;;;16.71;100.00;97953.19;6160496;28;20709;-47
2023/08/19 01:06:51;;;;;;;13.87;12.67;;;;;;;16.69;100.00;97949.09;6163406;28;20264;-50
2023/08/19 01:10:00;;;;;;;13.37;12.07;;;;;;;16.67;100.00;97945.91;6159673;28;20234;-51
2023/08/19 01:13:14;;;;;;;13.67;12.43;;;;;;;16.67;100.00;97948.59;6154278;28;20670;-47
2023/08/19 01:16:25;;;;;;;14.43;13.03;;;;;;;16.66;100.00;97952.38;6161886;28;20240;-50
2023/08/19 01:19:37;;;;;;;16.00;14.43;;;;;;;16.62;100.00;97954.00;6160381;28;20247;-50
2023/08/19 01:22:58;;;;;;;14.43;13.13;;;;;;;16.65;100.00;97958.81;6160443;28;20282;-48
2023/08/19 01:26:03;;;;;;;13.50;12.30;;;;;;;16.62;100.00;97954.78;6158009;28;20768;-45
2023/08/19 01:29:05;;;;;;;14.87;13.37;;;;;;;16.55;100.00;97948.06;6159985;28;20642;-50
2023/08/19 01:32:07;;;;;;;14.47;13.07;;;;;;;16.51;100.00;97945.94;6160487;28;20242;-50
2023/08/19 01:35:12;;;;;;;15.27;13.60;;;;;;;16.49;100.00;97940.03;6156276;28;20310;-49
2023/08/19 01:38:24;;;;;;;13.77;12.57;;;;;;;16.48;100.00;97943.78;6157533;28;20241;-50
2023/08/19 01:41:34;;;;;;;13.73;12.40;;;;;;;16.44;100.00;97944.63;6159996;28;20380;-48
2023/08/19 01:44:38;;;;;;;14.77;13.30;;;;;;;16.43;100.00;97948.38;6159519;28;20240;-49
2023/08/19 01:47:42;;;;;;;14.83;13.43;;;;;;;16.41;100.00;97948.66;6155762;28;20230;-49
2023/08/19 01:50:45;;;;;;;14.90;13.50;;;;;;;16.40;100.00;97949.75;6158082;28;20233;-49
2023/08/19 01:53:48;;;;;;;14.97;13.23;;;;;;;16.41;100.00;97958.63;6150607;28;20320;-46
2023/08/19 01:56:50;;;;;;;15.37;13.97;;;;;;;16.41;100.00;97956.75;6158645;28;20736;-47
2023/08/19 01:59:54;;;;;;;13.47;12.17;;;;;;;16.41;100.00;97947.88;6157104;28;20595;-47
2023/08/19 02:02:57;;;;;;;15.57;14.17;;;;;;;16.33;100.00;97943.84;6136533;28;20348;-51
2023/08/19 02:06:05;;;;;;;14.73;13.43;;;;;;;16.35;100.00;97944.34;6136900;28;20223;-50
2023/08/19 02:09:08;;;;;;;14.27;12.97;;;;;;;16.36;100.00;97946.00;6137416;28;20241;-50
2023/08/19 02:12:10;;;;;;;15.87;14.27;;;;;;;16.33;100.00;97945.72;6167315;28;20213;-50
2023/08/19 02:15:12;;;;;;;14.47;12.97;;;;;;;16.29;100.00;97945.44;6134884;28;20225;-49
2023/08/19 02:18:14;;;;;;;15.13;13.63;;;;;;;16.32;100.00;97961.06;6136814;28;20219;-48
2023/08/19 02:21:17;;;;;;;14.67;13.20;;;;;;;16.33;100.00;97961.84;6157150;28;20237;-50
2023/08/19 02:24:21;;;;;;;15.07;13.60;;;;;;;16.34;100.00;97961.56;6154401;28;20256;-50
2023/08/19 02:27:25;;;;;;;15.13;13.73;;;;;;;16.38;100.00;97967.22;6154463;28;20221;-47
2023/08/19 02:30:27;;;;;;;16.77;15.17;;;;;;;16.37;100.00;97965.63;6158692;28;20792;-51
2023/08/19 02:33:30;;;;;;;15.07;13.57;;;;;;;16.36;100.00;97958.63;6156024;28;20223;-50
2023/08/19 02:36:32;;;;;;;14.63;13.33;;;;;;;16.35;100.00;97968.56;6157803;28;20276;-50
2023/08/19 02:39:36;;;;;;;14.80;13.40;;;;;;;16.33;100.00;97962.66;6158276;28;20230;-52
2023/08/19 02:42:41;;;;;;;14.73;13.33;;;;;;;16.30;100.00;97962.38;6156109;28;20233;-51
2023/08/19 02:45:43;;;;;;;13.10;12.00;;;;;;;16.26;100.00;97962.16;6159159;28;20229;-51
2023/08/19 02:48:46;;;;;;;12.87;11.67;;;;;;;16.21;100.00;97962.16;6159020;28;20247;-51
2023/08/19 02:51:49;;;;;;;14.30;13.00;;;;;;;16.11;100.00;97954.91;6156330;28;20717;-49
2023/08/19 02:55:04;;;;;;;17.47;13.20;;;;;;;16.14;100.00;97975.84;6162284;28;20241;-47
2023/08/19 02:58:07;;;;;;;15.50;13.43;;;;;;;16.13;100.00;97960.81;6155821;28;20233;-47
2023/08/19 03:01:14;;;;;;;14.47;12.90;;;;;;;16.14;100.00;97953.53;6158309;28;20233;-48
2023/08/19 03:04:16;;;;;;;14.97;13.57;;;;;;;16.12;100.00;97961.88;6156908;28;20249;-51
2023/08/19 03:07:19;;;;;;;15.50;13.23;;;;;;;16.08;100.00;97962.69;6155476;28;20244;-53
2023/08/19 03:10:21;;;;;;;14.50;13.00;;;;;;;16.08;100.00;97963.50;6155314;28;20864;-47
2023/08/19 03:13:24;;;;;;;14.23;13.03;;;;;;;16.08;100.00;97968.06;6155195;28;20303;-48
2023/08/19 03:16:26;;;;;;;14.70;13.37;;;;;;;16.09;100.00;97970.47;6156359;28;20272;-49
2023/08/19 03:19:28;;;;;;;13.43;12.33;;;;;;;16.09;100.00;97973.16;6157591;28;20241;-53
2023/08/19 03:22:31;;;;;;;12.90;11.70;;;;;;;16.11;100.00;97973.72;6158750;28;20320;-49
2023/08/19 03:25:33;;;;;;;12.73;11.53;;;;;;;16.13;100.00;97982.31;6158603;28;20732;-50
2023/08/19 03:28:36;;;;;;;13.80;12.43;;;;;;;16.13;100.00;97984.19;6157948;28;20647;-45
2023/08/19 03:31:39;;;;;;;13.87;12.47;;;;;;;16.15;100.00;97990.91;6156863;28;20242;-45
2023/08/19 03:34:42;;;;;;;15.47;13.93;;;;;;;16.14;100.00;97983.13;6138266;28;20378;-49
2023/08/19 03:37:44;;;;;;;14.40;13.10;;;;;;;16.11;100.00;97983.66;6131123;28;20242;-48
2023/08/19 03:40:46;;;;;;;13.37;11.97;;;;;;;16.04;100.00;97981.22;6133627;28;20253;-49
2023/08/19 03:43:48;;;;;;;13.33;12.13;;;;;;;15.97;100.00;97978.84;6128834;28;20292;-50
2023/08/19 03:46:51;;;;;;;13.43;12.13;;;;;;;15.93;100.00;97972.38;6133785;28;20245;-46
2023/08/19 03:49:53;;;;;;;12.97;11.77;;;;;;;15.89;100.00;97967.81;6132817;28;20278;-49
2023/08/19 03:52:55;;;;;;;13.83;12.43;;;;;;;15.87;100.00;97969.97;6132769;28;20692;-47
2023/08/19 03:55:57;;;;;;;13.53;12.40;;;;;;;15.88;100.00;97974.25;6139031;28;20605;-49
2023/08/19 03:59:00;;;;;;;13.03;11.77;;;;;;;15.88;100.00;97972.38;6148488;28;20237;-51
2023/08/19 04:02:02;;;;;;;13.50;12.13;;;;;;;15.89;100.00;97971.28;6155288;28;20230;-47
2023/08/19 04:05:06;;;;;;;11.83;10.83;;;;;;;15.90;100.00;97972.09;6154521;28;20241;-48
2023/08/19 04:08:09;;;;;;;12.83;11.73;;;;;;;15.93;100.00;97974.25;6157329;28;20237;-50
2023/08/19 04:11:12;;;;;;;12.70;11.53;;;;;;;15.93;100.00;97971.56;6142005;28;20236;-49
2023/08/19 04:14:17;;;;;;;13.07;11.87;;;;;;;15.95;100.00;97972.09;6135777;28;20230;-51
2023/08/19 04:17:19;;;;;;;13.20;11.93;;;;;;;15.92;100.00;97973.47;6144836;28;20729;-48
2023/08/19 04:20:21;;;;;;;13.27;12.07;;;;;;;15.91;100.00;97969.16;6168984;28;20230;-49
2023/08/19 04:23:25;;;;;;;11.60;10.60;;;;;;;15.92;100.00;97972.66;6159155;28;20288;-52
2023/08/19 04:26:27;;;;;;;13.50;12.33;;;;;;;15.94;100.00;97973.97;6157863;28;20233;-49
2023/08/19 04:29:32;;;;;;;13.70;12.37;;;;;;;15.93;100.00;97963.50;6154768;28;20237;-50
2023/08/19 04:32:35;;;;;;;15.77;14.23;;;;;;;15.89;100.00;97965.13;6158233;28;20272;-49
2023/08/19 04:35:37;;;;;;;14.00;12.60;;;;;;;15.88;100.00;97968.88;6157367;28;20735;-46
2023/08/19 04:38:40;;;;;;;12.30;11.30;;;;;;;15.90;100.00;97964.03;6149416;28;20242;-50
2023/08/19 04:41:43;;;;;;;13.13;12.03;;;;;;;15.92;100.00;97962.72;6155429;28;20238;-48
2023/08/19 04:44:48;;;;;;;12.67;11.57;;;;;;;15.96;100.00;97966.47;6158798;28;20269;-50
2023/08/19 04:47:51;;;;;;;12.20;11.20;;;;;;;15.79;100.00;97941.75;6157273;28;20252;-47
2023/08/19 04:50:54;;;;;;;12.77;11.50;;;;;;;16.02;100.00;97971.84;6158273;28;20237;-49
2023/08/19 04:53:56;;;;;;;12.60;11.40;;;;;;;16.04;100.00;97973.19;6157961;28;20328;-46
2023/08/19 04:56:59;;;;;;;13.27;12.17;;;;;;;16.06;100.00;97975.59;6159251;28;20245;-51
2023/08/19 05:00:02;;;;;;;13.83;12.63;;;;;;;16.05;100.00;97971.28;6166302;28;20312;-53
2023/08/19 05:03:04;;;;;;;14.13;12.93;;;;;;;16.08;100.00;97981.50;6157116;28;20238;-49
2023/08/19 05:06:08;;;;;;;12.80;11.67;;;;;;;16.09;100.00;97977.75;6155570;28;20218;-52
2023/08/19 05:09:14;;;;;;;12.57;11.37;;;;;;;16.11;100.00;97975.59;6139911;28;20922;-52
2023/08/19 05:12:16;;;;;;;14.30;12.90;;;;;;;16.14;100.00;97981.22;6148291;28;20724;-47
2023/08/19 05:15:19;;;;;;;13.77;12.57;;;;;;;16.15;100.00;97977.47;6132413;28;20209;-49
2023/08/19 05:18:22;;;;;;;14.10;12.70;;;;;;;16.20;100.00;97982.81;6156928;28;20245;-48
2023/08/19 05:21:24;;;;;;;12.67;11.57;;;;;;;16.24;100.00;97993.84;6158683;28;20230;-51
2023/08/19 05:24:26;;;;;;;13.87;12.57;;;;;;;16.28;100.00;97997.63;6153651;28;20316;-50
2023/08/19 05:27:28;;;;;;;15.13;13.83;;;;;;;16.30;100.00;98003.53;6157377;28;20237;-48
2023/08/19 05:30:31;;;;;;;13.87;12.70;;;;;;;16.33;100.00;98004.88;6156771;28;20233;-50
2023/08/19 05:33:33;;;;;;;15.83;14.43;;;;;;;16.35;100.00;98006.19;6155343;28;20240;-47
2023/08/19 05:36:35;;;;;;;16.37;14.93;;;;;;;16.36;100.00;98012.41;6154759;28;20312;-49
2023/08/19 05:39:37;;;;;;;15.33;13.93;;;;;;;16.39;100.00;98017.22;6157967;28;20225;-52
2023/08/19 05:42:39;;;;;;;15.83;14.23;;;;;;;16.43;100.00;98018.31;6154372;28;20253;-50
2023/08/19 05:45:43;;;;;;;14.87;13.57;;;;;;;16.47;100.00;98025.56;6158575;28;20245;-49
2023/08/19 05:48:45;;;;;;;17.20;15.60;;;;;;;16.52;100.00;98025.56;6157484;28;20230;-51
2023/08/19 05:51:52;;;;;;;17.33;15.83;;;;;;;16.57;100.00;98030.13;6159614;28;20369;-49
2023/08/19 05:54:55;;;;;;;16.33;14.93;;;;;;;16.62;100.00;98030.09;6158387;28;20237;-49
2023/08/19 05:57:57;;;;;;;16.00;14.47;;;;;;;16.66;100.00;98041.13;6162596;28;20860;-51
2023/08/19 06:01:03;;;;;;;16.97;15.37;;;;;;;16.70;100.00;98037.63;6168060;28;20712;-48
2023/08/19 06:04:06;;;;;;;15.90;14.50;;;;;;;16.73;100.00;98030.91;6165252;28;20777;-50
2023/08/19 06:07:11;;;;;;;15.73;14.33;;;;;;;16.83;100.00;98052.41;6437426;23;20233;-61
2023/08/19 06:10:14;;;;;;;14.77;13.53;;;;;;;16.84;100.00;98042.47;6156852;28;20705;-60
2023/08/19 06:13:16;;;;;;;14.37;13.07;;;;;;;16.96;100.00;98062.63;6159401;28;20238;-58
2023/08/19 06:16:18;;;;;;;14.87;13.67;;;;;;;17.06;100.00;98067.16;6159049;28;20244;-61
2023/08/19 06:19:21;;;;;;;15.23;13.77;;;;;;;17.13;100.00;98064.97;6152463;28;20238;-60
2023/08/19 06:22:24;;;;;;;15.27;13.47;;;;;;;17.21;100.00;98075.19;6155561;28;20234;-61
2023/08/19 06:25:26;;;;;;;14.50;13.30;;;;;;;17.24;100.00;98066.56;6170857;28;20233;-60
2023/08/19 06:28:28;;;;;;;16.50;14.93;;;;;;;17.38;100.00;98074.84;6157186;28;20629;-58
2023/08/19 06:31:31;;;;;;;18.40;16.70;;;;;;;17.56;100.00;98080.69;6149837;28;20234;-61
2023/08/19 06:34:34;;;;;;;20.47;18.47;;;;;;;17.73;100.00;98065.00;6158499;28;20230;-60
2023/08/19 06:37:41;;;;;;;18.10;16.40;;;;;;;17.82;100.00;98074.09;6157541;28;20288;-61
2023/08/19 06:40:54;;;;;;;16.77;15.33;;;;;;;17.90;100.00;98075.41;6150068;28;20238;-60
2023/08/19 06:43:57;;;;;;;19.17;17.50;;;;;;;18.01;100.00;98079.66;6157386;28;20713;-59
2023/08/19 06:47:02;;;;;;;16.80;15.33;;;;;;;18.16;100.00;98078.75;6155137;28;20234;-55
2023/08/19 06:50:06;;;;;;;16.97;15.47;;;;;;;18.28;100.00;98085.41;6156355;28;20234;-59
2023/08/19 06:53:10;;;;;;;16.20;14.80;;;;;;;18.42;100.00;98076.63;6157086;28;20245;-56
2023/08/19 06:56:20;;;;;;;15.77;14.40;;;;;;;18.56;100.00;98083.78;6157118;28;20238;-57
2023/08/19 06:59:36;;;;;;;16.77;15.33;;;;;;;18.73;100.00;98082.63;6153805;28;20230;-57
2023/08/19 07:02:38;;;;;;;18.70;17.10;;;;;;;18.89;100.00;98080.56;6155720;28;20237;-55
2023/08/19 07:05:42;;;;;;;17.93;16.43;;;;;;;19.03;100.00;98076.91;6156663;28;20230;-55
2023/08/19 07:08:45;;;;;;;17.67;16.17;;;;;;;19.21;100.00;98077.22;6155791;28;20702;-53
2023/08/19 07:11:53;;;;;;;17.77;16.27;;;;;;;19.37;100.00;98085.97;6157567;28;20229;-56
2023/08/19 07:14:55;;;;;;;16.10;14.80;;;;;;;19.48;100.00;98073.94;6153926;28;20321;-57
2023/08/19 07:18:00;;;;;;;17.27;15.80;;;;;;;19.67;100.00;98077.50;6156945;28;20316;-57
2023/08/19 07:21:04;;;;;;;15.20;14.00;;;;;;;19.82;100.00;98076.50;6132637;28;20230;-57
2023/08/19 07:24:07;;;;;;;17.70;16.03;;;;;;;19.94;100.00;98079.53;6169055;28;20239;-58
2023/08/19 07:27:13;;;;;;;15.27;14.03;;;;;;;20.09;100.00;98092.84;6168215;28;20308;-57
2023/08/19 07:30:16;;;;;;;16.23;14.70;;;;;;;20.25;100.00;98095.34;6165773;28;20237;-52
2023/08/19 07:33:19;;;;;;;15.07;13.77;;;;;;;20.42;100.00;98100.19;6156430;28;20265;-51
2023/08/19 07:36:22;;;;;;;16.50;14.80;;;;;;;20.54;100.00;98106.81;6158542;28;20257;-54
2023/08/19 07:39:28;;;;;;;18.90;15.00;;;;;;;20.68;100.00;98100.59;6153374;28;20222;-56
2023/08/19 07:42:35;;;;;;;14.63;13.33;;;;;;;20.81;100.00;98111.47;6132572;28;20230;-53
2023/08/19 07:45:38;;;;;;;15.40;14.10;;;;;;;20.92;100.00;98112.09;6132549;28;20800;-55
2023/08/19 07:48:44;;;;;;;15.67;14.27;;;;;;;21.06;100.00;98104.78;6133339;28;20337;-52
2023/08/19 07:51:47;;;;;;;15.97;14.50;;;;;;;21.18;100.00;98108.91;6135867;28;20249;-51
2023/08/19 07:54:52;;;;;;;14.87;13.37;;;;;;;21.33;100.00;98120.31;6128732;28;20706;-56
2023/08/19 07:57:54;;;;;;;14.47;13.07;;;;;;;21.46;100.00;98115.16;6132409;28;20238;-56
2023/08/19 08:00:56;;;;;;;14.33;13.13;;;;;;;21.58;100.00;98108.16;6159128;28;20245;-55
2023/08/19 08:03:58;;;;;;;13.17;12.07;;;;;;;21.69;100.00;98125.00;6132720;28;20646;-51
2023/08/19 08:07:01;;;;;;;14.43;13.07;;;;;;;21.79;100.00;98127.50;6132569;28;20238;-53
2023/08/19 08:10:03;;;;;;;14.03;12.73;;;;;;;21.90;100.00;98123.44;6128524;28;20388;-52
2023/08/19 08:13:06;;;;;;;13.97;12.67;;;;;;;21.97;100.00;98123.06;6132267;28;20230;-60
2023/08/19 08:16:08;;;;;;;13.30;12.10;;;;;;;22.12;100.00;98135.50;6132573;28;20234;-62
2023/08/19 08:19:10;;;;;;;13.87;12.40;;;;;;;22.22;100.00;98134.47;6131928;28;20715;-62
2023/08/19 08:22:12;;;;;;;13.27;12.07;;;;;;;22.34;100.00;98137.44;6132305;28;20245;-61
2023/08/19 08:28:38;;;;;;;12.27;11.17;;;;;;;22.57;99.11;98135.53;1813470;23;20256;-61
2023/08/19 08:31:41;;;;;;;12.77;11.47;;;;;;;22.69;97.55;98132.25;6229509;28;20314;-59
2023/08/19 08:34:43;;;;;;;11.23;10.23;;;;;;;22.85;91.21;98141.63;6227120;28;20231;-59
2023/08/19 08:37:46;;;;;;;12.27;11.23;;;;;;;23.00;88.99;98145.88;6219481;28;20353;-58
2023/08/19 08:40:50;;;;;;;11.00;10.10;;;;;;;23.07;90.79;98144.34;6226958;28;20251;-61
2023/08/19 08:43:55;;;;;;;11.23;10.33;;;;;;;23.15;90.85;98146.31;6226981;28;20239;-61
2023/08/19 08:47:00;;;;;;;12.10;10.70;;;;;;;23.25;89.92;98133.53;6230259;28;20314;-61
2023/08/19 08:50:06;;;;;;;9.50;8.50;;;;;;;23.29;86.44;98146.19;6226515;28;20232;-61
2023/08/19 08:53:13;;;;;;;10.23;9.23;;;;;;;23.44;83.59;98148.50;6206275;28;20336;-60
2023/08/19 08:56:16;;;;;;;10.20;9.30;;;;;;;23.49;84.58;98142.09;6231512;28;20235;-61
2023/08/19 08:59:19;;;;;;;12.57;9.20;;;;;;;23.54;79.73;98135.72;6227475;28;20254;-59
2023/08/19 09:02:25;;;;;;;11.55;8.73;;;;;;;23.81;73.20;98140.97;6213872;28;20243;-60
2023/08/19 09:05:29;;;;;;;9.15;8.35;;;;;;;24.09;75.39;98129.81;6229883;28;20240;-60
2023/08/19 09:08:52;;;;;;;8.98;8.15;;;;;;;24.17;76.62;98139.88;6227051;28;20264;-61
2023/08/19 09:11:57;;;;;;;9.45;8.55;;;;;;;24.22;73.26;98145.16;6230487;28;20232;-61
2023/08/19 09:15:04;;;;;;;9.00;8.07;;;;;;;24.42;71.31;98146.47;6230687;28;20224;-60
2023/08/19 09:18:09;;;;;;;9.10;8.30;;;;;;;24.51;71.89;98139.13;6227697;28;20797;-61
2023/08/19 09:21:40;;;;;;;9.15;8.25;;;;;;;24.61;71.73;98143.44;6195857;28;20670;-61
2023/08/19 09:25:15;;;;;;;9.63;8.65;;;;;;;24.70;72.69;98149.69;6238292;28;20223;-61
2023/08/19 09:28:19;;;;;;;9.75;8.90;;;;;;;24.74;66.88;98150.63;6216268;28;20240;-58
2023/08/19 09:31:21;;;;;;;8.40;7.68;;;;;;;24.78;65.61;98146.16;6231596;28;20243;-57
2023/08/19 09:34:24;;;;;;;9.32;8.32;;;;;;;24.85;67.74;98146.44;6227459;28;20232;-66
2023/08/19 09:37:26;;;;;;;8.95;8.13;;;;;;;24.90;71.78;98145.47;6226931;28;20263;-63
2023/08/19 09:40:28;;;;;;;8.98;8.18;;;;;;;25.08;66.31;98146.28;6232122;28;20603;-62
2023/08/19 09:43:31;;;;;;;9.15;8.35;;;;;;;25.15;67.17;98143.81;6231784;28;20239;-63
2023/08/19 09:46:34;;;;;;;8.57;7.70;;;;;;;25.17;71.09;98147.00;6207638;28;20235;-63
2023/08/19 09:49:37;;;;;;;9.00;8.20;;;;;;;25.21;75.04;98142.50;6227277;28;20232;-62
2023/08/19 09:52:40;;;;;;;9.23;8.43;;;;;;;25.20;70.83;98147.16;6228967;28;20235;-65
2023/08/19 09:55:50;;;;;;;9.30;8.50;;;;;;;25.10;68.78;98139.34;6231993;28;20236;-63
2023/08/19 09:58:56;;;;;;;9.93;8.98;;;;;;;25.10;70.50;98144.00;6230324;28;20226;-64
2023/08/19 10:02:00;;;;;;;9.70;8.68;;;;;;;25.05;69.01;98133.25;6231719;28;20242;-64
2023/08/19 10:05:03;;;;;;;9.52;8.65;;;;;;;25.19;71.71;98151.03;6212506;28;20254;-63
2023/08/19 10:08:08;;;;;;;9.23;8.43;;;;;;;25.16;70.21;98148.94;6212512;28;20257;-63
2023/08/19 10:11:14;;;;;;;9.32;8.27;;;;;;;25.13;64.43;98155.06;6229646;28;20228;-62
2023/08/19 10:14:22;;;;;;;9.10;8.30;;;;;;;25.14;65.75;98153.13;6210059;28;20232;-64
2023/08/19 10:17:25;;;;;;;9.43;8.40;;;;;;;25.02;66.34;98155.69;6230040;28;20227;-64
2023/08/19 10:20:40;;;;;;;8.60;7.78;;;;;;;24.89;69.13;98152.06;6204250;28;20359;-64
2023/08/19 10:23:52;;;;;;;9.05;7.97;;;;;;;24.74;70.87;98156.09;6220689;28;20303;-64
2023/08/19 10:26:54;;;;;;;8.98;8.07;;;;;;;24.81;67.39;98150.13;6228637;28;20737;-64
2023/08/19 10:29:57;;;;;;;9.30;8.20;;;;;;;25.01;67.78;98159.56;6230758;28;20232;-64
2023/08/19 10:33:22;;;;;;;11.63;8.57;;;;;;;25.12;69.26;98147.19;6226233;28;20238;-67
2023/08/19 10:36:33;;;;;;;9.45;8.50;;;;;;;25.43;63.44;98141.47;6207705;28;20231;-61
2023/08/19 10:39:36;;;;;;;9.30;8.50;;;;;;;25.53;65.35;98145.78;6230362;28;20228;-62
2023/08/19 10:42:39;;;;;;;9.25;8.35;;;;;;;25.59;64.66;98153.44;6227544;28;20311;-61
2023/08/19 10:45:41;;;;;;;10.20;8.82;;;;;;;25.74;64.06;98152.06;6227965;28;20257;-60
2023/08/19 10:48:49;;;;;;;9.18;8.48;;;;;;;25.95;61.70;98144.75;6227809;28;20232;-59
2023/08/19 10:51:59;;;;;;;9.07;7.38;;;;;;;26.04;62.46;98152.09;6228736;28;20769;-64
2023/08/19 10:55:06;;;;;;;8.20;7.57;;;;;;;26.12;65.98;98148.50;6226046;28;20235;-63
2023/08/19 10:58:09;;;;;;;9.27;8.35;;;;;;;26.07;66.63;98143.25;6228209;28;20840;-61
2023/08/19 11:01:11;;;;;;;8.50;7.75;;;;;;;25.93;63.30;98148.94;6227393;28;20227;-63
2023/08/19 11:04:14;;;;;;;9.73;8.82;;;;;;;25.82;63.47;98147.75;6228608;28;20241;-61
2023/08/19 11:07:17;;;;;;;8.82;7.93;;;;;;;25.89;62.94;98140.59;6229272;28;20251;-61
2023/08/19 11:10:20;;;;;;;9.13;7.90;;;;;;;25.99;61.96;98134.75;6228562;28;20235;-62
2023/08/19 11:13:22;;;;;;;8.90;8.10;;;;;;;26.15;61.94;98128.69;6224388;28;20235;-60
2023/08/19 11:16:28;;;;;;;9.52;8.20;;;;;;;26.19;61.09;98127.69;6228876;28;20224;-62
2023/08/19 11:19:31;;;;;;;9.85;8.65;;;;;;;26.24;58.75;98129.44;6227904;28;20717;-60
2023/08/19 11:22:49;;;;;;;8.25;7.45;;;;;;;26.36;57.29;98132.25;6229667;28;20242;-61
2023/08/19 11:25:51;;;;;;;8.85;7.90;;;;;;;26.36;57.39;98137.72;6210561;28;20597;-62
2023/08/19 11:28:53;;;;;;;8.57;7.78;;;;;;;26.37;55.82;98133.84;6223589;28;20321;-62
2023/08/19 11:31:56;;;;;;;8.20;7.40;;;;;;;26.39;56.66;98139.75;6229677;28;20323;-62
2023/08/19 11:34:58;;;;;;;9.25;8.38;;;;;;;26.42;55.64;98135.56;6196203;28;20238;-62
2023/08/19 11:38:00;;;;;;;8.57;7.80;;;;;;;26.47;56.92;98133.47;6225434;28;20233;-59
2023/08/19 11:44:25;;;;;;;8.27;7.57;;;;;;;26.58;59.36;98133.84;6201063;28;20232;-61
2023/08/19 11:47:33;;;;;;;8.00;7.40;;;;;;;26.59;59.38;98121.75;6203423;28;20286;-61
2023/08/19 11:50:35;;;;;;;8.90;8.10;;;;;;;26.62;58.59;98121.09;6202804;28;20616;-58
2023/08/19 11:53:40;;;;;;;8.73;8.00;;;;;;;26.64;59.10;98120.75;6225372;28;20227;-61
2023/08/19 11:56:53;;;;;;;8.23;7.60;;;;;;;26.66;58.77;98126.72;6201852;28;20275;-60
2023/08/19 11:59:56;;;;;;;9.23;7.18;;;;;;;26.78;57.61;98124.00;6205046;28;20704;-59
2023/08/19 12:03:01;;;;;;;9.50;8.18;;;;;;;26.86;56.94;98116.84;6197121;28;20248;-61
2023/08/19 12:06:03;;;;;;;9.60;7.80;;;;;;;26.85;57.81;98118.78;6204376;28;20371;-62
2023/08/19 12:09:06;;;;;;;10.63;7.85;;;;;;;26.84;53.06;98117.16;6200209;28;20322;-60
2023/08/19 12:12:10;;;;;;;9.07;8.15;;;;;;;26.86;51.96;98114.13;6201609;28;20750;-60
2023/08/19 12:15:13;;;;;;;8.23;7.50;;;;;;;26.88;52.66;98109.91;6222480;28;20219;-59
2023/08/19 12:18:16;;;;;;;10.00;8.20;;;;;;;26.98;54.67;98105.94;6205147;28;20669;-60
2023/08/19 12:21:19;;;;;;;8.70;7.80;;;;;;;26.97;55.41;98104.34;6225405;28;20683;-60
2023/08/19 12:24:21;;;;;;;8.52;7.75;;;;;;;27.08;52.78;98097.31;6227605;28;20232;-60
2023/08/19 12:27:23;;;;;;;9.13;8.07;;;;;;;27.18;52.22;98104.28;6222955;28;20223;-58
2023/08/19 12:30:25;;;;;;;9.40;8.38;;;;;;;27.25;50.40;98093.59;6231154;28;20303;-59
2023/08/19 12:33:28;;;;;;;8.85;8.05;;;;;;;27.28;51.03;98090.16;6229397;28;20224;-59
2023/08/19 12:36:30;;;;;;;9.60;8.68;;;;;;;27.22;50.63;98091.53;6232288;28;20590;-59
2023/08/19 12:39:32;;;;;;;8.57;7.95;;;;;;;27.20;50.82;98091.06;6227875;28;20711;-58
2023/08/19 12:42:34;;;;;;;10.75;8.95;;;;;;;27.24;52.03;98089.22;6231877;28;20247;-58
2023/08/19 12:45:49;;;;;;;8.82;8.02;;;;;;;27.19;52.44;98086.72;6233215;28;20598;-59
2023/08/19 12:48:51;;;;;;;8.48;7.75;;;;;;;27.18;50.15;98083.19;6231965;28;20238;-59
2023/08/19 12:51:54;;;;;;;9.10;8.27;;;;;;;27.17;52.01;98084.34;6228761;28;20238;-59
2023/08/19 12:54:56;;;;;;;8.40;7.68;;;;;;;27.12;52.56;98076.34;6232029;28;20298;-59
2023/08/19 12:57:58;;;;;;;8.68;7.97;;;;;;;27.11;52.42;98074.78;6228765;28;20243;-60
2023/08/19 13:01:00;;;;;;;8.95;8.00;;;;;;;27.08;54.38;98071.91;6232454;28;20350;-59
2023/08/19 13:04:03;;;;;;;9.02;8.20;;;;;;;27.00;53.49;98066.19;6228486;28;20239;-59
2023/08/19 13:07:05;;;;;;;8.88;8.02;;;;;;;27.07;53.01;98062.09;6226071;28;20609;-58
2023/08/19 13:10:09;;;;;;;9.27;8.48;;;;;;;27.06;54.34;98065.97;6232202;28;20236;-58
2023/08/19 13:13:11;;;;;;;8.85;8.00;;;;;;;27.01;55.92;98059.56;6231623;28;20709;-58
2023/08/19 13:16:13;;;;;;;8.50;7.70;;;;;;;26.94;59.13;98061.25;6226252;28;20239;-58
2023/08/19 13:19:16;;;;;;;8.65;7.88;;;;;;;26.83;61.21;98062.84;6231199;28;20285;-58
2023/08/19 13:22:22;;;;;;;8.75;7.95;;;;;;;26.66;60.78;98048.25;6231930;28;20403;-58
2023/08/19 13:25:27;;;;;;;9.20;8.40;;;;;;;26.70;60.86;98059.31;6224149;28;20289;-58
2023/08/19 13:28:31;;;;;;;11.13;8.90;;;;;;;26.64;61.00;98057.91;6230468;28;20245;-57
2023/08/19 13:31:33;;;;;;;9.82;8.93;;;;;;;26.60;61.89;98051.50;6230954;28;20330;-58
2023/08/19 13:34:35;;;;;;;9.93;8.93;;;;;;;26.56;62.58;98056.06;6229742;28;20786;-58
2023/08/19 13:37:38;;;;;;;10.00;9.10;;;;;;;26.54;63.46;98040.00;6233838;28;20246;-59
2023/08/19 13:40:40;;;;;;;9.02;8.23;;;;;;;26.47;63.68;98039.75;6227010;28;20232;-58
2023/08/19 13:43:42;;;;;;;9.45;8.55;;;;;;;26.46;64.82;98044.44;6227674;28;20245;-56
2023/08/19 13:46:44;;;;;;;8.65;7.95;;;;;;;26.41;65.15;98036.41;6231727;28;20627;-59
2023/08/19 13:49:47;;;;;;;9.88;8.88;;;;;;;26.33;63.96;98042.75;6224696;28;20378;-57
2023/08/19 13:52:49;;;;;;;8.73;8.00;;;;;;;26.33;60.54;98040.03;6231224;28;20240;-57
2023/08/19 13:55:52;;;;;;;9.65;8.73;;;;;;;26.31;61.04;98039.56;6231024;28;20276;-58
2023/08/19 13:58:55;;;;;;;9.70;8.68;;;;;;;26.27;62.49;98044.09;6231591;28;20773;-58
2023/08/19 14:01:59;;;;;;;9.52;8.65;;;;;;;26.20;62.49;98033.72;6227104;28;20239;-57
2023/08/19 14:05:01;;;;;;;9.13;8.40;;;;;;;26.17;62.76;98033.59;6228187;28;20282;-58
2023/08/19 14:08:03;;;;;;;9.70;8.85;;;;;;;26.15;64.00;98033.91;6229142;28;20239;-58
2023/08/19 14:11:08;;;;;;;10.50;9.55;;;;;;;26.02;63.94;98032.28;6230800;28;20738;-58
2023/08/19 14:14:10;;;;;;;10.40;9.57;;;;;;;26.04;64.69;98034.69;6230826;28;20239;-58
2023/08/19 14:17:13;;;;;;;9.70;8.80;;;;;;;25.97;65.91;98027.81;6230850;28;20239;-59